createdAt,value
2022-11-22T00:00:25.707Z,0.90
2022-11-22T00:02:52.889Z,0.89
2022-11-22T00:05:20.503Z,0.86
2022-11-22T00:07:47.736Z,0.87
2022-11-22T00:10:16.556Z,0.92
2022-11-22T00:12:44.278Z,0.91
2022-11-22T00:15:12.839Z,0.99
2022-11-22T00:17:40.413Z,1.00
2022-11-22T00:20:09.349Z,1.00
2022-11-22T00:22:42.801Z,1.04
2022-11-22T00:25:12.038Z,1.05
2022-11-22T00:27:40.815Z,1.03
2022-11-22T00:30:09.277Z,1.03
2022-11-22T00:32:36.626Z,1.08
2022-11-22T00:35:04.338Z,1.05
2022-11-22T00:37:31.655Z,1.06
2022-11-22T00:39:59.141Z,1.03
2022-11-22T00:42:26.420Z,0.95
2022-11-22T00:44:55.048Z,0.99
2022-11-22T00:47:22.297Z,0.95
2022-11-22T00:49:49.559Z,0.99
2022-11-22T00:52:16.827Z,1.04
2022-11-22T00:54:44.009Z,0.93
2022-11-22T00:57:11.325Z,0.89
2022-11-22T00:59:38.560Z,0.96
2022-11-22T01:02:07.243Z,0.88
2022-11-22T01:04:34.508Z,0.87
2022-11-22T01:07:01.743Z,0.86
2022-11-22T01:09:29.513Z,0.92
2022-11-22T01:11:56.965Z,0.93
2022-11-22T01:14:24.261Z,0.95
2022-11-22T01:16:51.673Z,0.97
2022-11-22T01:19:20.251Z,0.98
2022-11-22T01:21:47.565Z,0.93
2022-11-22T01:24:14.844Z,0.90
2022-11-22T01:26:42.180Z,0.94
2022-11-22T01:29:09.534Z,0.97
2022-11-22T01:31:36.793Z,0.98
2022-11-22T01:34:05.482Z,0.95
2022-11-22T01:36:34.042Z,1.00
2022-11-22T01:39:01.261Z,0.99
2022-11-22T01:41:28.541Z,0.98
2022-11-22T01:43:55.766Z,0.98
2022-11-22T01:46:32.505Z,0.98
2022-11-22T01:49:02.997Z,1.01
2022-11-22T01:51:36.885Z,1.03
2022-11-22T01:54:07.698Z,1.00
2022-11-22T01:56:36.228Z,1.00
2022-11-22T01:59:08.295Z,1.01
2022-11-22T02:01:36.379Z,0.98
2022-11-22T02:04:06.148Z,1.05
2022-11-22T02:06:42.095Z,1.04
2022-11-22T02:09:11.500Z,1.08
2022-11-22T02:11:43.375Z,1.13
2022-11-22T02:14:12.094Z,1.10
2022-11-22T02:16:40.625Z,1.09
2022-11-22T02:19:14.145Z,1.12
2022-11-22T02:21:46.539Z,1.13
2022-11-22T02:24:19.765Z,1.09
2022-11-22T02:26:48.370Z,1.07
2022-11-22T02:29:16.126Z,1.09
2022-11-22T02:31:46.171Z,1.11
2022-11-22T02:34:14.338Z,1.12
2022-11-22T02:36:44.101Z,1.13
2022-11-22T02:39:14.392Z,1.16
2022-11-22T02:41:43.223Z,1.12
2022-11-22T02:44:13.400Z,1.16
2022-11-22T02:46:48.631Z,1.20
2022-11-22T02:49:17.771Z,1.23
2022-11-22T02:51:45.305Z,1.23
2022-11-22T02:54:12.680Z,1.17
2022-11-22T02:56:39.985Z,1.20
2022-11-22T02:59:07.323Z,1.20
2022-11-22T03:01:36.442Z,1.23
2022-11-22T03:04:04.043Z,1.21
2022-11-22T03:06:31.438Z,1.17
2022-11-22T03:08:58.748Z,1.21
2022-11-22T03:11:26.085Z,1.27
2022-11-22T03:13:53.283Z,1.24
2022-11-22T03:16:20.636Z,1.26
2022-11-22T03:18:49.198Z,1.29
2022-11-22T03:21:16.417Z,1.26
2022-11-22T03:23:43.657Z,1.32
2022-11-22T03:26:12.112Z,1.30
2022-11-22T03:28:39.288Z,1.33
2022-11-22T03:31:07.595Z,1.30
2022-11-22T03:33:35.344Z,1.28
2022-11-22T03:36:04.216Z,1.30
2022-11-22T03:38:31.534Z,1.33
2022-11-22T03:40:58.706Z,1.36
2022-11-22T03:43:25.886Z,1.39
2022-11-22T03:45:53.392Z,1.34
2022-11-22T03:48:20.599Z,1.38
2022-11-22T03:50:47.903Z,1.36
2022-11-22T03:53:16.526Z,1.41
2022-11-22T03:55:43.738Z,1.44
2022-11-22T03:58:11.000Z,1.54
2022-11-22T04:00:38.228Z,1.53
2022-11-22T04:03:05.387Z,1.50
2022-11-22T04:05:32.636Z,1.49
2022-11-22T04:07:59.804Z,1.50
2022-11-22T04:10:28.558Z,1.51
2022-11-22T04:12:57.824Z,1.51
2022-11-22T04:15:25.537Z,1.56
2022-11-22T04:17:53.424Z,1.55
2022-11-22T04:20:23.189Z,1.56
2022-11-22T04:22:55.420Z,1.55
2022-11-22T04:25:22.718Z,1.58
2022-11-22T04:27:51.238Z,1.58
2022-11-22T04:30:20.650Z,1.62
2022-11-22T04:32:48.254Z,1.59
2022-11-22T04:35:17.086Z,1.63
2022-11-22T04:37:50.009Z,1.62
2022-11-22T04:40:17.798Z,1.66
2022-11-22T04:42:44.996Z,1.64
2022-11-22T04:45:13.669Z,1.59
2022-11-22T04:47:42.873Z,1.59
2022-11-22T04:50:12.160Z,1.65
2022-11-22T04:52:39.437Z,1.64
2022-11-22T04:55:07.260Z,1.65
2022-11-22T04:57:34.399Z,1.67
2022-11-22T05:00:01.711Z,1.64
2022-11-22T05:02:30.222Z,1.65
2022-11-22T05:04:57.418Z,1.65
2022-11-22T05:07:24.727Z,1.66
2022-11-22T05:09:51.957Z,1.63
2022-11-22T05:12:19.152Z,1.67
2022-11-22T05:14:46.366Z,1.69
2022-11-22T05:17:13.910Z,1.70
2022-11-22T05:19:46.442Z,1.68
2022-11-22T05:22:16.641Z,1.71
2022-11-22T05:24:43.855Z,1.70
2022-11-22T05:27:11.105Z,1.70
2022-11-22T05:29:38.249Z,1.74
2022-11-22T05:32:05.502Z,1.74
2022-11-22T05:34:33.009Z,1.75
2022-11-22T05:37:01.569Z,1.76
2022-11-22T05:39:29.150Z,1.76
2022-11-22T05:41:56.676Z,1.80
2022-11-22T05:44:23.951Z,1.80
2022-11-22T05:46:51.135Z,1.81
2022-11-22T05:49:18.478Z,1.79
2022-11-22T05:51:45.690Z,1.80
2022-11-22T05:54:14.277Z,1.84
2022-11-22T05:56:41.494Z,1.83
2022-11-22T05:59:08.776Z,1.85
2022-11-22T06:01:35.984Z,1.78
2022-11-22T06:04:03.214Z,1.80
2022-11-22T06:06:30.458Z,1.79
2022-11-22T06:08:58.794Z,1.82
2022-11-22T06:11:27.887Z,1.84
2022-11-22T06:13:57.040Z,1.83
2022-11-22T06:16:24.597Z,1.80
2022-11-22T06:18:53.485Z,1.84
2022-11-22T06:21:23.097Z,1.86
2022-11-22T06:23:51.103Z,1.87
2022-11-22T06:26:19.738Z,1.86
2022-11-22T06:28:49.477Z,1.90
2022-11-22T06:31:19.265Z,1.93
2022-11-22T06:33:46.799Z,1.96
2022-11-22T06:36:16.245Z,1.95
2022-11-22T06:38:44.365Z,1.96
2022-11-22T06:41:14.480Z,1.96
2022-11-22T06:43:48.388Z,1.95
2022-11-22T06:46:18.737Z,1.97
2022-11-22T06:48:46.817Z,2.00
2022-11-22T06:51:17.396Z,2.04
2022-11-22T06:53:48.236Z,2.03
2022-11-22T06:56:18.204Z,2.02
2022-11-22T06:58:46.430Z,2.04
2022-11-22T07:01:15.549Z,2.05
2022-11-22T07:03:45.002Z,2.07
2022-11-22T07:06:14.170Z,2.09
2022-11-22T07:08:42.412Z,2.10
2022-11-22T07:11:11.375Z,2.08
2022-11-22T07:13:38.737Z,2.14
2022-11-22T07:16:07.808Z,2.16
2022-11-22T07:18:35.030Z,2.17
2022-11-22T07:21:10.950Z,2.18
2022-11-22T07:23:41.127Z,2.20
2022-11-22T07:26:08.828Z,2.16
2022-11-22T07:28:36.527Z,2.17
2022-11-22T07:31:05.745Z,2.17
2022-11-22T07:33:33.513Z,2.23
2022-11-22T07:36:05.570Z,2.21
2022-11-22T07:38:32.891Z,2.20
2022-11-22T07:41:00.630Z,2.22
2022-11-22T07:43:27.846Z,2.22
2022-11-22T07:45:58.585Z,2.26
2022-11-22T07:48:25.832Z,2.32
2022-11-22T07:50:53.040Z,2.31
2022-11-22T07:53:21.682Z,2.34
2022-11-22T07:55:49.199Z,2.42
2022-11-22T07:58:16.409Z,2.44
2022-11-22T08:00:43.636Z,2.42
2022-11-22T08:03:14.300Z,2.43
2022-11-22T08:05:44.442Z,2.45
2022-11-22T08:08:11.668Z,2.51
2022-11-22T08:10:40.234Z,2.53
2022-11-22T08:13:07.522Z,2.51
2022-11-22T08:15:34.667Z,2.51
2022-11-22T08:18:01.991Z,2.53
2022-11-22T08:20:29.131Z,2.58
2022-11-22T08:22:56.359Z,2.65
2022-11-22T08:25:23.588Z,2.63
2022-11-22T08:27:52.159Z,2.63
2022-11-22T08:30:19.583Z,2.58
2022-11-22T08:32:46.829Z,2.61
2022-11-22T08:35:14.220Z,2.65
2022-11-22T08:37:41.415Z,2.65
2022-11-22T08:40:09.701Z,2.66
2022-11-22T08:42:36.949Z,2.71
2022-11-22T08:45:06.636Z,2.73
2022-11-22T08:47:33.862Z,2.74
2022-11-22T08:50:01.082Z,2.79
2022-11-22T08:52:28.392Z,2.81
2022-11-22T08:54:55.649Z,2.87
2022-11-22T08:57:22.828Z,2.91
2022-11-22T08:59:50.144Z,2.93
2022-11-22T09:02:18.692Z,2.93
2022-11-22T09:04:45.914Z,2.96
2022-11-22T09:10:00.409Z,3.03
2022-11-22T09:12:27.709Z,3.07
2022-11-22T09:14:54.928Z,3.06
2022-11-22T09:17:23.474Z,3.11
2022-11-22T09:19:50.724Z,3.11
2022-11-22T09:22:18.009Z,3.12
2022-11-22T09:24:45.176Z,3.13
2022-11-22T09:27:12.424Z,3.19
2022-11-22T09:29:39.745Z,3.19
2022-11-22T09:32:09.413Z,3.22
2022-11-22T09:34:38.037Z,3.21
2022-11-22T09:37:05.317Z,3.24
2022-11-22T09:39:32.658Z,3.30
2022-11-22T09:42:32.286Z,3.33
2022-11-22T09:45:34.826Z,3.40
2022-11-22T09:48:13.949Z,3.41
2022-11-22T09:50:51.553Z,3.52
2022-11-22T09:53:24.820Z,3.49
2022-11-22T09:55:55.980Z,3.58
2022-11-22T09:58:29.653Z,3.49
2022-11-22T10:01:03.160Z,3.57
2022-11-22T10:03:41.103Z,3.71
2022-11-22T10:06:15.888Z,3.79
2022-11-22T10:08:52.144Z,3.82
2022-11-22T10:11:33.528Z,3.98
2022-11-22T10:14:12.249Z,4.09
2022-11-22T10:16:44.006Z,4.37
2022-11-22T10:19:15.644Z,4.33
2022-11-22T10:21:45.572Z,4.41
2022-11-22T10:24:15.965Z,4.32
2022-11-22T10:26:43.880Z,4.26
2022-11-22T10:29:31.310Z,4.48
2022-11-22T10:32:07.853Z,4.73
2022-11-22T10:34:45.589Z,4.78
2022-11-22T10:37:24.113Z,5.08
2022-11-22T10:40:13.979Z,5.95
2022-11-22T10:42:57.078Z,6.89
2022-11-22T10:45:29.657Z,7.36
2022-11-22T10:48:13.132Z,7.41
2022-11-22T10:50:56.391Z,7.39
2022-11-22T10:53:37.694Z,7.18
2022-11-22T10:56:14.418Z,7.06
2022-11-22T10:58:54.834Z,6.60
2022-11-22T11:01:31.185Z,6.36
2022-11-22T11:04:00.599Z,6.33
2022-11-22T11:06:49.899Z,6.45
2022-11-22T11:12:16.861Z,7.33
2022-11-22T11:14:48.940Z,7.04
2022-11-22T11:17:23.293Z,7.46
2022-11-22T11:19:52.888Z,7.95
2022-11-22T11:22:50.241Z,7.85
2022-11-22T11:25:33.404Z,7.83
2022-11-22T11:28:03.777Z,8.01
2022-11-22T11:30:39.021Z,8.40
2022-11-22T11:33:18.204Z,9.10
2022-11-22T11:35:46.446Z,8.82
2022-11-22T11:38:31.418Z,9.09
2022-11-22T11:41:17.227Z,8.66
2022-11-22T11:43:45.492Z,9.35
2022-11-22T11:46:17.201Z,9.01
2022-11-22T11:48:44.910Z,9.23
2022-11-22T11:51:16.832Z,9.12
2022-11-22T11:53:54.639Z,9.07
2022-11-22T11:56:31.697Z,8.91
2022-11-22T11:59:03.718Z,8.71
2022-11-22T12:01:38.482Z,8.83
2022-11-22T12:04:14.814Z,9.07
2022-11-22T12:06:47.040Z,9.05
2022-11-22T12:09:28.527Z,9.65
2022-11-22T12:12:02.283Z,10.16
2022-11-22T12:14:55.613Z,9.92
2022-11-22T12:17:26.032Z,10.54
2022-11-22T12:20:06.812Z,10.89
2022-11-22T12:22:51.642Z,10.98
2022-11-22T12:25:33.537Z,10.62
2022-11-22T12:28:16.629Z,10.38
2022-11-22T12:30:47.173Z,10.35
2022-11-22T12:33:19.189Z,10.77
2022-11-22T12:35:47.824Z,10.53
2022-11-22T12:38:18.463Z,10.78
2022-11-22T12:40:49.819Z,10.41
2022-11-22T12:43:23.130Z,10.31
2022-11-22T12:45:53.655Z,10.64
2022-11-22T12:48:27.803Z,10.69
2022-11-22T12:50:59.581Z,10.36
2022-11-22T12:53:30.772Z,10.30
2022-11-22T12:56:04.365Z,10.57
2022-11-22T12:58:40.297Z,10.35
2022-11-22T13:01:15.473Z,10.53
2022-11-22T13:03:50.666Z,10.80
2022-11-22T13:06:23.530Z,10.83
2022-11-22T13:09:03.448Z,11.13
2022-11-22T13:11:37.554Z,10.85
2022-11-22T13:14:10.767Z,10.96
2022-11-22T13:16:38.121Z,11.00
2022-11-22T13:19:07.110Z,11.52
2022-11-22T13:21:49.212Z,11.20
2022-11-22T13:24:32.152Z,10.87
2022-11-22T13:27:14.589Z,10.87
2022-11-22T13:29:44.403Z,11.00
2022-11-22T13:32:19.934Z,11.06
2022-11-22T13:35:03.639Z,11.81
2022-11-22T13:37:35.001Z,11.13
2022-11-22T13:40:17.960Z,11.09
2022-11-22T13:42:45.255Z,11.03
2022-11-22T13:45:22.050Z,10.70
2022-11-22T13:47:49.911Z,10.38
2022-11-22T13:50:50.500Z,10.42
2022-11-22T13:53:24.116Z,9.76
2022-11-22T13:55:51.404Z,9.33
2022-11-22T13:58:53.729Z,8.50
2022-11-22T14:01:50.103Z,7.99
2022-11-22T14:04:28.590Z,7.56
2022-11-22T14:07:02.606Z,7.53
2022-11-22T14:09:54.206Z,7.65
2022-11-22T14:12:47.050Z,7.89
2022-11-22T14:15:36.004Z,7.87
2022-11-22T14:18:21.163Z,7.60
2022-11-22T14:21:02.126Z,7.33
2022-11-22T14:23:52.076Z,7.02
2022-11-22T14:26:27.685Z,6.84
2022-11-22T14:29:37.104Z,6.59
2022-11-22T14:32:14.282Z,6.39
2022-11-22T14:35:18.143Z,6.34
2022-11-22T14:37:56.326Z,6.27
2022-11-22T14:40:31.145Z,6.17
2022-11-22T14:43:01.510Z,6.15
2022-11-22T14:45:41.817Z,6.10
2022-11-22T14:48:18.837Z,5.99
2022-11-22T14:50:54.753Z,5.99
2022-11-22T14:53:29.862Z,5.89
2022-11-22T14:56:03.171Z,5.89
2022-11-22T14:58:33.817Z,5.87
2022-11-22T15:01:27.035Z,5.91
2022-11-22T15:09:17.449Z,5.87
2022-11-22T15:09:18.601Z,5.89
2022-11-22T15:10:27.243Z,5.85
2022-11-22T15:13:29.654Z,5.86
2022-11-22T15:59:09.917Z,5.89
2022-11-22T16:01:39.946Z,5.85
2022-11-22T16:04:20.969Z,5.85
2022-11-22T16:06:49.121Z,5.83
2022-11-22T16:09:23.976Z,5.81
2022-11-22T16:11:54.430Z,5.78
2022-11-22T16:14:46.210Z,5.84
2022-11-22T16:17:27.749Z,5.78
2022-11-22T16:20:26.838Z,5.78
2022-11-22T16:23:18.835Z,5.74
2022-11-22T16:25:48.479Z,5.69
2022-11-22T16:28:27.417Z,5.67
2022-11-22T16:30:58.053Z,5.66
2022-11-22T16:33:25.494Z,5.68
2022-11-22T16:35:53.442Z,5.62
2022-11-22T16:38:21.772Z,5.63
2022-11-22T16:40:49.094Z,5.59
2022-11-22T16:43:18.031Z,5.57
2022-11-22T16:45:45.460Z,5.59
2022-11-22T16:48:31.497Z,5.52
2022-11-22T16:51:03.471Z,5.50
2022-11-22T16:53:37.691Z,5.50
2022-11-22T16:56:05.485Z,5.49
2022-11-22T16:58:32.813Z,5.49
2022-11-22T17:01:00.981Z,5.42
2022-11-22T17:03:31.945Z,5.38
2022-11-22T17:05:59.300Z,5.37
2022-11-22T17:08:26.531Z,5.41
2022-11-22T17:10:54.004Z,5.40
2022-11-22T17:13:23.332Z,5.32
2022-11-22T17:15:51.078Z,5.35
2022-11-22T17:18:18.604Z,5.32
2022-11-22T17:20:47.990Z,5.31
2022-11-22T17:23:20.840Z,5.33
2022-11-22T17:25:48.115Z,5.31
2022-11-22T17:28:15.331Z,5.26
2022-11-22T17:30:42.612Z,5.25
2022-11-22T17:33:11.171Z,5.23
2022-11-22T17:35:38.860Z,5.17
2022-11-22T17:38:09.688Z,5.14
2022-11-22T17:40:36.986Z,5.08
2022-11-22T17:43:04.294Z,5.04
2022-11-22T17:45:31.499Z,5.00
2022-11-22T17:47:58.659Z,4.92
2022-11-22T17:50:25.957Z,4.84
2022-11-22T17:52:53.202Z,4.73
2022-11-22T17:55:21.726Z,4.64
2022-11-22T17:57:53.109Z,4.64
2022-11-22T18:00:28.421Z,4.67
2022-11-22T18:02:57.295Z,4.67
2022-11-22T18:05:24.523Z,4.64
2022-11-22T18:07:52.723Z,4.72
2022-11-22T18:10:21.440Z,4.74
2022-11-22T18:13:13.472Z,4.70
2022-11-22T18:15:35.871Z,4.78
2022-11-22T18:18:03.087Z,4.79
2022-11-22T18:20:30.288Z,4.79
2022-11-22T18:22:57.550Z,4.81
2022-11-22T18:25:26.194Z,4.79
2022-11-22T18:27:53.426Z,4.76
2022-11-22T18:30:20.668Z,4.79
2022-11-22T18:32:47.885Z,4.75
2022-11-22T18:35:15.393Z,4.72
2022-11-22T18:37:42.564Z,4.67
2022-11-22T18:40:10.972Z,4.64
2022-11-22T18:42:39.573Z,4.59
2022-11-22T18:45:07.912Z,4.56
2022-11-22T18:47:35.136Z,4.50
2022-11-22T18:50:02.311Z,4.49
2022-11-22T18:52:31.458Z,4.45
2022-11-22T18:54:58.686Z,4.45
2022-11-22T18:57:26.077Z,4.45
2022-11-22T18:59:54.602Z,4.45
2022-11-22T19:02:21.896Z,4.47
2022-11-22T19:04:49.043Z,4.46
2022-11-22T19:07:16.314Z,4.46
2022-11-22T19:09:43.594Z,4.51
2022-11-22T19:12:10.823Z,4.49
2022-11-22T19:14:38.070Z,4.45
2022-11-22T19:17:06.621Z,4.44
2022-11-22T19:19:33.940Z,4.40
2022-11-22T19:22:01.920Z,4.41
2022-11-22T19:24:29.827Z,4.43
2022-11-22T19:26:57.317Z,4.41
2022-11-22T19:29:24.633Z,4.40
2022-11-22T19:31:51.966Z,4.37
2022-11-22T19:34:20.489Z,4.27
2022-11-22T19:36:47.780Z,4.25
2022-11-22T19:39:15.552Z,4.21
2022-11-22T19:41:44.300Z,4.19
2022-11-22T19:44:11.650Z,4.20
2022-11-22T19:46:38.953Z,4.19
2022-11-22T19:49:06.263Z,4.20
2022-11-22T19:51:34.925Z,4.23
2022-11-22T19:54:02.754Z,4.28
2022-11-22T19:56:32.251Z,4.32
2022-11-22T19:59:02.079Z,4.31
2022-11-22T20:01:30.918Z,4.34
2022-11-22T20:04:00.808Z,4.34
2022-11-22T20:06:28.526Z,4.36
2022-11-22T20:09:02.383Z,4.38
2022-11-22T20:11:29.744Z,4.46
2022-11-22T20:13:57.038Z,4.49
2022-11-22T20:16:27.335Z,4.54
2022-11-22T20:18:55.311Z,4.53
2022-11-22T20:21:23.290Z,4.55
2022-11-22T20:23:50.939Z,4.56
2022-11-22T20:26:20.880Z,4.62
2022-11-22T20:28:53.801Z,4.64
2022-11-22T20:31:21.549Z,4.64
2022-11-22T20:33:50.538Z,4.70
2022-11-22T20:36:19.482Z,4.73
2022-11-22T20:38:47.610Z,4.74
2022-11-22T20:41:17.195Z,4.78
2022-11-22T20:43:46.251Z,4.78
2022-11-22T20:46:15.153Z,4.83
2022-11-22T20:48:44.399Z,4.86
2022-11-22T20:51:13.053Z,4.87
2022-11-22T20:53:41.062Z,4.88
2022-11-22T20:56:09.124Z,4.88
2022-11-22T20:58:36.595Z,4.89
2022-11-22T21:01:07.370Z,4.91
2022-11-22T21:03:35.564Z,4.92
2022-11-22T21:06:03.934Z,4.93
2022-11-22T21:08:32.325Z,4.95
2022-11-22T21:11:04.314Z,4.94
2022-11-22T21:13:31.894Z,4.96
2022-11-22T21:16:20.651Z,4.95
2022-11-22T21:18:51.918Z,4.97
2022-11-22T21:21:19.835Z,4.98
2022-11-22T21:23:47.130Z,4.99
2022-11-22T21:26:14.772Z,5.01
2022-11-22T21:28:42.082Z,5.00
2022-11-22T21:31:09.347Z,5.04
2022-11-22T21:33:37.682Z,5.03
2022-11-22T21:36:07.269Z,5.02
2022-11-22T21:38:34.680Z,5.08
2022-11-22T21:41:24.229Z,5.10
2022-11-22T21:43:54.033Z,5.11
2022-11-22T21:46:21.231Z,5.11
2022-11-22T21:48:48.822Z,5.12
2022-11-22T21:51:17.533Z,5.16
2022-11-22T21:53:44.757Z,5.15
2022-11-22T21:56:12.071Z,5.18
2022-11-22T21:58:39.448Z,5.22
2022-11-22T22:01:12.385Z,5.20
2022-11-22T22:03:41.288Z,5.25
2022-11-22T22:06:08.849Z,5.27
2022-11-22T22:08:37.457Z,5.24
2022-11-22T22:11:05.218Z,5.23
2022-11-22T22:13:32.929Z,5.20
2022-11-22T22:16:01.605Z,5.16
2022-11-22T22:18:33.037Z,5.16
2022-11-22T22:21:02.165Z,5.17
2022-11-22T22:23:29.881Z,5.18
2022-11-22T22:25:59.712Z,5.22
2022-11-22T22:28:28.177Z,5.27
2022-11-22T22:31:05.488Z,5.33
2022-11-22T22:33:33.485Z,5.38
2022-11-22T22:36:01.036Z,5.37
2022-11-22T22:38:29.580Z,5.41
2022-11-22T22:41:00.078Z,5.42
2022-11-22T22:43:30.372Z,5.43
2022-11-22T22:46:06.267Z,5.42
2022-11-22T22:48:34.626Z,5.45
2022-11-22T22:51:07.211Z,5.49
2022-11-22T22:53:34.754Z,5.51
2022-11-22T22:56:04.824Z,5.49
2022-11-22T22:58:32.012Z,5.53
2022-11-22T23:01:07.350Z,5.49
2022-11-22T23:03:34.892Z,5.54
2022-11-22T23:06:05.413Z,5.54
2022-11-22T23:08:32.818Z,5.60
2022-11-22T23:11:05.331Z,5.61
2022-11-22T23:13:34.169Z,5.64
2022-11-22T23:16:01.598Z,5.65
2022-11-22T23:18:29.154Z,5.65
2022-11-22T23:20:59.705Z,5.65
2022-11-22T23:23:27.533Z,5.64
2022-11-22T23:25:54.922Z,5.66
2022-11-22T23:28:23.631Z,5.68
2022-11-22T23:30:51.024Z,5.72
2022-11-22T23:33:18.245Z,5.77
2022-11-22T23:35:45.493Z,5.79
2022-11-22T23:38:12.723Z,5.82
2022-11-22T23:40:39.964Z,5.85
2022-11-22T23:43:07.277Z,5.85
2022-11-22T23:45:35.846Z,5.88
2022-11-22T23:48:03.119Z,5.88
2022-11-22T23:50:32.698Z,5.93
2022-11-22T23:53:03.416Z,5.92
2022-11-22T23:55:30.873Z,5.87
2022-11-22T23:57:58.394Z,5.90
